Kezdőlap
METAR-TAF:

METAR-TAF

Repülőterek :

Grozny, Oroszország

földrajzi szélesség: 43-23-18N, földrajzi hosszúság: 045-41-59E, magasság: 167 m

Jelenlegi meteorológiai megfigyelések

A jelentés 28 perccel ezelõtt készült, 13:30 UTC
Keleti szél 21 kt
Hőmérséklet 29°C
Páratartalom 40%
Légköri nyomás 1012 hPa
Látótávolság 10 km, vagy több
felhőtlen 1500 m magasságban, és nincs gomolyfelhõ

METAR: URMG 161330Z 10011MPS CAVOK 29/14 Q1012 R08/000070 NOSIG RMK QFE744/0993

Idő: 16:58 (13:58 UTC)

Előrejelzés

A jelentés 2 órával és 58 perccel ezelõtt készült, 11:00 UTC
Az előrejelzés 16-én 12 óra UTC és 16-én 21 óra UTC között érvényes
Keleti szél 6 kt széllökések: 16 kt
Látótávolság 10 km, vagy több
Szórványos felhőzet 3000 lábon
16-én 12 óra UTC és 16-én 18 óra UTC között ideiglenes
Keleti szél 16 kt széllökések: 25 kt

TAF: URMG 161100Z 1612/1621 09003G08MPS 9999 SCT030 TEMPO 1612/1618 10008G13MPS

Meteorológiai megfigyelések és előrejelzések több, mint 4000 repülőtéren (METAR és TAF jelentéseket).

A térképen piros és sárga pontok jelzik az elérhető meteorológiai állomásokat.

Mozgassa az egeret a pont fölött, hogy megjelenjen az állomás neve.

Azután kattintson az időjárási megfigyelések és előrejelzések megtekintéséhez.

A térkép megváltoztatása: kattintson a fekete keresztel jelölt zöld gombra ráközelítéshez, a vonallal jelölt zöld gombra távolításhoz, vagy a zöld nyilakra a szomszédos térképek eléréséhez.


METAR-TAF: